createdAt,value
2018-04-16T00:01:29.606Z,19.10
2018-04-16T00:04:03.231Z,18.87
2018-04-16T00:06:36.905Z,20.60
2018-04-16T00:09:10.467Z,20.13
2018-04-16T00:11:44.218Z,20.93
2018-04-16T00:14:17.890Z,21.03
2018-04-16T00:16:51.495Z,20.70
2018-04-16T00:19:24.999Z,20.70
2018-04-16T00:21:58.515Z,19.77
2018-04-16T00:24:32.182Z,21.03
2018-04-16T00:27:05.903Z,21.27
2018-04-16T00:29:40.182Z,20.10
2018-04-16T00:32:19.503Z,20.07
2018-04-16T00:34:58.522Z,18.63
2018-04-16T00:37:37.885Z,18.03
2018-04-16T00:40:17.041Z,18.50
2018-04-16T00:42:56.343Z,19.70
2018-04-16T00:45:35.592Z,20.27
2018-04-16T00:48:14.847Z,19.40
2018-04-16T00:50:54.787Z,18.17
2018-04-16T00:53:47.035Z,18.73
2018-04-16T00:56:26.548Z,18.40
2018-04-16T00:59:05.767Z,19.33
2018-04-16T01:01:44.950Z,18.43
2018-04-16T01:04:24.375Z,20.13
2018-04-16T01:07:04.483Z,17.07
2018-04-16T01:09:43.703Z,17.30
2018-04-16T01:12:22.807Z,19.30
2018-04-16T01:15:02.291Z,19.53
2018-04-16T01:17:41.491Z,18.10
2018-04-16T01:20:20.952Z,17.60
2018-04-16T01:23:00.528Z,18.60
2018-04-16T01:25:39.751Z,19.30
2018-04-16T01:28:18.986Z,19.63
2018-04-16T01:30:58.381Z,20.07
2018-04-16T01:36:39.727Z,20.77
2018-04-16T01:39:18.954Z,19.70
2018-04-16T01:41:58.383Z,19.53
2018-04-16T01:44:37.615Z,19.90
2018-04-16T01:47:17.042Z,20.67
2018-04-16T01:49:57.175Z,19.43
2018-04-16T01:52:36.479Z,19.40
2018-04-16T01:55:15.858Z,20.33
2018-04-16T01:57:55.419Z,21.37
2018-04-16T02:00:34.925Z,22.63
2018-04-16T02:06:17.046Z,20.47
2018-04-16T02:08:56.262Z,20.03
2018-04-16T02:11:35.339Z,20.50
2018-04-16T02:14:14.682Z,22.37
2018-04-16T02:16:54.109Z,20.77
2018-04-16T02:19:34.132Z,20.43
2018-04-16T02:22:13.730Z,19.23
2018-04-16T02:24:53.033Z,17.43
2018-04-16T02:27:32.487Z,17.47
2018-04-16T02:30:11.895Z,16.60
2018-04-16T02:32:51.310Z,15.00
2018-04-16T02:35:31.398Z,14.10
2018-04-16T02:38:10.710Z,14.43
2018-04-16T02:40:49.963Z,14.27
2018-04-16T02:43:29.191Z,15.50
2018-04-16T02:46:08.466Z,15.73
2018-04-16T02:48:47.687Z,15.10
2018-04-16T02:51:27.203Z,17.87
2018-04-16T02:54:06.585Z,16.50
2018-04-16T02:56:45.930Z,16.80
2018-04-16T02:59:25.275Z,16.70
2018-04-16T03:02:04.374Z,16.27
2018-04-16T03:04:43.698Z,17.37
2018-04-16T03:07:23.106Z,16.57
2018-04-16T03:10:02.382Z,17.83
2018-04-16T03:12:41.540Z,18.33
2018-04-16T03:15:20.991Z,19.33
2018-04-16T03:18:00.194Z,19.27
2018-04-16T03:20:39.526Z,21.20
2018-04-16T03:23:18.668Z,20.73
2018-04-16T03:25:57.984Z,21.60
2018-04-16T03:28:37.149Z,19.23
2018-04-16T03:34:19.263Z,27.73
2018-04-16T03:36:59.238Z,27.97
2018-04-16T03:39:40.091Z,31.67
2018-04-16T03:42:19.246Z,24.60
2018-04-16T03:44:58.399Z,24.67
2018-04-16T03:47:37.675Z,23.97
2018-04-16T03:53:33.187Z,23.33
2018-04-16T03:56:07.606Z,24.87
2018-04-16T03:58:41.380Z,25.17
2018-04-16T04:01:14.937Z,24.40
2018-04-16T04:03:48.574Z,24.23
2018-04-16T04:06:22.135Z,24.60
2018-04-16T04:08:55.914Z,24.63
2018-04-16T04:11:29.441Z,25.93
2018-04-16T04:14:03.117Z,33.00
2018-04-16T04:16:38.269Z,25.87
2018-04-16T04:19:11.966Z,26.10
2018-04-16T04:21:45.630Z,24.60
2018-04-16T04:24:32.055Z,24.93
2018-04-16T04:27:17.473Z,26.20
2018-04-16T04:30:03.027Z,23.83
2018-04-16T04:32:36.821Z,23.27
2018-04-16T04:35:10.334Z,23.43
2018-04-16T04:37:45.463Z,25.10
2018-04-16T04:40:19.064Z,24.83
2018-04-16T04:42:52.774Z,25.10
2018-04-16T04:45:26.330Z,26.00
2018-04-16T04:48:00.775Z,23.80
2018-04-16T04:50:34.485Z,23.70
2018-04-16T04:53:08.082Z,25.00
2018-04-16T04:55:41.691Z,25.37
2018-04-16T04:58:15.400Z,23.83
2018-04-16T05:00:49.093Z,24.63
2018-04-16T05:03:22.899Z,24.63
2018-04-16T05:05:56.403Z,23.60
2018-04-16T05:08:30.066Z,20.97
2018-04-16T05:11:03.695Z,23.03
2018-04-16T05:13:37.527Z,30.43
2018-04-16T05:16:11.290Z,29.93
2018-04-16T05:18:45.011Z,27.07
2018-04-16T05:21:18.790Z,26.73
2018-04-16T05:23:52.530Z,25.13
2018-04-16T05:26:26.230Z,24.93
2018-04-16T05:28:59.955Z,24.57
2018-04-16T05:31:33.739Z,29.93
2018-04-16T05:34:07.558Z,26.17
2018-04-16T05:36:41.556Z,27.67
2018-04-16T05:39:15.352Z,27.50
2018-04-16T05:41:49.651Z,27.40
2018-04-16T05:44:23.588Z,28.70
2018-04-16T05:46:57.086Z,29.17
2018-04-16T05:49:30.985Z,31.60
2018-04-16T05:52:04.794Z,32.73
2018-04-16T05:54:39.169Z,31.93
2018-04-16T05:57:12.712Z,31.73
2018-04-16T05:59:46.262Z,32.60
2018-04-16T06:02:20.705Z,34.77
2018-04-16T06:04:54.442Z,33.43
2018-04-16T06:07:28.738Z,33.07
2018-04-16T06:10:02.380Z,33.60
2018-04-16T06:12:36.061Z,34.93
2018-04-16T06:15:09.673Z,35.30
2018-04-16T06:17:43.465Z,36.33
2018-04-16T06:20:17.082Z,35.40
2018-04-16T06:22:51.363Z,35.53
2018-04-16T06:25:25.790Z,35.37
2018-04-16T06:27:59.579Z,36.57
2018-04-16T06:30:33.211Z,35.17
2018-04-16T06:33:06.779Z,36.73
2018-04-16T06:35:41.106Z,37.60
2018-04-16T06:38:15.429Z,36.13
2018-04-16T06:40:49.130Z,34.23
2018-04-16T06:43:22.950Z,35.27
2018-04-16T06:45:56.762Z,35.57
2018-04-16T06:48:30.563Z,34.60
2018-04-16T06:51:04.139Z,36.40
2018-04-16T06:53:37.800Z,34.03
2018-04-16T06:56:11.451Z,34.23
2018-04-16T06:58:45.139Z,37.33
2018-04-16T07:01:18.798Z,35.73
2018-04-16T07:03:52.579Z,35.37
2018-04-16T07:06:26.392Z,35.63
2018-04-16T07:09:01.022Z,36.03
2018-04-16T07:11:34.610Z,33.33
2018-04-16T07:14:08.127Z,35.30
2018-04-16T07:16:41.679Z,35.27
2018-04-16T07:19:15.387Z,34.57
2018-04-16T07:21:49.058Z,37.33
2018-04-16T07:24:22.708Z,36.83
2018-04-16T07:26:56.420Z,38.67
2018-04-16T07:29:30.151Z,35.37
2018-04-16T07:32:03.890Z,35.43
2018-04-16T07:34:37.695Z,34.00
2018-04-16T07:37:11.435Z,34.80
2018-04-16T07:39:45.022Z,34.37
2018-04-16T07:42:20.679Z,35.10
2018-04-16T07:44:54.393Z,34.73
2018-04-16T07:47:28.092Z,32.43
2018-04-16T07:50:01.894Z,31.33
2018-04-16T07:52:35.704Z,30.13
2018-04-16T07:55:10.106Z,30.57
2018-04-16T07:57:43.932Z,29.07
2018-04-16T08:00:17.603Z,25.93
2018-04-16T08:02:51.402Z,27.97
2018-04-16T08:05:25.138Z,25.53
2018-04-16T08:07:59.014Z,25.43
2018-04-16T08:10:33.454Z,26.27
2018-04-16T08:13:07.006Z,23.20
2018-04-16T08:15:40.641Z,15.33
2018-04-16T08:18:14.170Z,15.27
2018-04-16T08:20:47.978Z,15.60
2018-04-16T08:23:21.678Z,14.37
2018-04-16T08:25:55.261Z,14.13
2018-04-16T08:28:29.190Z,13.50
2018-04-16T08:31:02.806Z,12.53
2018-04-16T08:33:36.591Z,13.50
2018-04-16T08:36:10.102Z,12.17
2018-04-16T08:38:43.672Z,11.73
2018-04-16T08:41:17.437Z,13.30
2018-04-16T08:43:52.514Z,13.47
2018-04-16T08:46:26.071Z,10.70
2018-04-16T08:48:59.834Z,11.73
2018-04-16T08:51:33.523Z,10.97
2018-04-16T08:54:07.239Z,11.30
2018-04-16T08:56:40.845Z,11.10
2018-04-16T08:59:14.647Z,10.83
2018-04-16T09:01:48.463Z,8.80
2018-04-16T09:04:22.053Z,9.10
2018-04-16T09:06:55.694Z,9.10
2018-04-16T09:09:30.040Z,8.83
2018-04-16T09:12:03.695Z,8.33
2018-04-16T09:14:37.249Z,9.23
2018-04-16T09:17:11.083Z,8.03
2018-04-16T09:19:45.374Z,9.33
2018-04-16T09:22:19.000Z,9.10
2018-04-16T09:24:52.642Z,9.33
2018-04-16T09:27:26.186Z,9.47
2018-04-16T09:29:59.803Z,8.83
2018-04-16T09:32:33.356Z,8.67
2018-04-16T09:35:06.901Z,7.03
2018-04-16T09:37:40.590Z,7.40
2018-04-16T09:40:14.301Z,6.43
2018-04-16T09:42:48.131Z,7.03
2018-04-16T09:45:22.622Z,6.70
2018-04-16T09:47:56.514Z,6.77
2018-04-16T09:50:30.051Z,6.20
2018-04-16T09:53:03.738Z,7.00
2018-04-16T09:55:37.550Z,7.97
2018-04-16T09:58:11.972Z,8.83
2018-04-16T10:00:50.643Z,11.83
2018-04-16T10:03:24.982Z,13.13
2018-04-16T10:05:58.736Z,14.10
2018-04-16T10:08:32.389Z,15.37
2018-04-16T10:11:06.082Z,15.67
2018-04-16T10:13:39.588Z,15.57
2018-04-16T10:16:13.337Z,14.33
2018-04-16T10:18:46.922Z,14.43
2018-04-16T10:21:21.229Z,15.13
2018-04-16T10:23:54.804Z,16.30
2018-04-16T10:26:28.448Z,15.07
2018-04-16T10:29:02.006Z,14.53
2018-04-16T10:31:35.644Z,13.13
2018-04-16T10:34:09.392Z,12.80
2018-04-16T10:36:42.922Z,13.33
2018-04-16T10:39:16.546Z,14.97
2018-04-16T10:41:50.959Z,16.50
2018-04-16T10:44:24.801Z,15.30
2018-04-16T10:46:58.575Z,15.73
2018-04-16T10:49:32.249Z,12.13
2018-04-16T10:52:06.192Z,12.10
2018-04-16T10:54:39.738Z,12.47
2018-04-16T10:57:13.475Z,12.83
2018-04-16T10:59:47.194Z,9.17
2018-04-16T11:02:21.000Z,9.63
2018-04-16T11:04:55.277Z,10.17
2018-04-16T11:07:28.986Z,11.57
2018-04-16T11:10:02.519Z,11.13
2018-04-16T11:12:36.107Z,11.50
2018-04-16T11:15:09.822Z,12.43
2018-04-16T11:17:43.632Z,14.13
2018-04-16T11:20:17.435Z,12.37
2018-04-16T11:22:51.062Z,12.83
2018-04-16T11:25:24.698Z,11.30
2018-04-16T11:27:58.329Z,12.97
2018-04-16T11:30:32.716Z,13.03
2018-04-16T11:33:06.350Z,13.53
2018-04-16T11:35:39.931Z,14.67
2018-04-16T11:38:14.483Z,13.50
2018-04-16T11:40:48.076Z,14.60
2018-04-16T11:43:22.585Z,13.30
2018-04-16T11:45:56.170Z,13.03
2018-04-16T11:48:29.910Z,12.87
2018-04-16T11:51:04.195Z,13.10
2018-04-16T11:53:38.127Z,12.90
2018-04-16T11:56:11.713Z,13.03
2018-04-16T11:58:45.330Z,12.63
2018-04-16T12:01:19.618Z,12.27
2018-04-16T12:03:53.195Z,12.00
2018-04-16T12:06:26.751Z,11.30
2018-04-16T12:09:00.257Z,11.43
2018-04-16T12:11:33.782Z,12.47
2018-04-16T12:14:07.342Z,12.80
2018-04-16T12:16:42.004Z,12.03
2018-04-16T12:19:16.486Z,12.83
2018-04-16T12:21:50.208Z,14.27
2018-04-16T12:24:23.886Z,14.50
2018-04-16T12:28:00.112Z,14.97
2018-04-16T12:30:34.359Z,15.57
2018-04-16T12:33:08.023Z,15.30
2018-04-16T12:35:41.891Z,14.53
2018-04-16T12:38:15.714Z,16.10
2018-04-16T12:40:49.370Z,16.30
2018-04-16T12:43:23.000Z,17.27
2018-04-16T12:45:56.611Z,16.67
2018-04-16T12:48:30.146Z,18.00
2018-04-16T12:51:03.910Z,18.10
2018-04-16T12:53:37.422Z,17.57
2018-04-16T12:56:10.979Z,17.50
2018-04-16T12:58:44.628Z,17.93
2018-04-16T13:01:19.126Z,18.33
2018-04-16T13:03:52.799Z,14.93
2018-04-16T13:06:26.603Z,14.00
2018-04-16T13:09:00.341Z,13.70
2018-04-16T13:11:33.947Z,12.30
2018-04-16T13:14:08.451Z,12.30
2018-04-16T13:16:42.239Z,12.37
2018-04-16T13:19:15.978Z,12.70
2018-04-16T13:21:49.774Z,13.47
2018-04-16T13:24:23.589Z,13.57
2018-04-16T13:26:57.193Z,12.57
2018-04-16T13:29:30.793Z,12.57
2018-04-16T13:32:04.591Z,12.27
2018-04-16T13:34:38.394Z,13.07
2018-04-16T13:37:12.202Z,13.83
2018-04-16T13:39:46.003Z,12.77
2018-04-16T13:42:19.718Z,12.77
2018-04-16T13:44:53.290Z,12.67
2018-04-16T13:47:26.886Z,13.83
2018-04-16T13:50:00.622Z,13.30
2018-04-16T13:52:34.363Z,12.53
2018-04-16T13:55:08.019Z,14.33
2018-04-16T13:57:41.821Z,11.13
2018-04-16T14:00:15.638Z,11.53
2018-04-16T14:02:49.134Z,11.53
2018-04-16T14:05:22.832Z,11.53
2018-04-16T14:07:56.468Z,12.17
2018-04-16T14:10:30.243Z,11.90
2018-04-16T14:13:03.997Z,11.13
2018-04-16T14:15:37.584Z,11.87
2018-04-16T14:18:11.243Z,12.17
2018-04-16T14:20:44.943Z,11.47
2018-04-16T14:23:18.483Z,11.80
2018-04-16T14:25:52.118Z,11.30
2018-04-16T14:28:26.462Z,10.17
2018-04-16T14:31:00.194Z,11.33
2018-04-16T14:33:33.870Z,10.17
2018-04-16T14:36:07.479Z,8.87
2018-04-16T14:38:41.074Z,9.03
2018-04-16T14:41:15.493Z,6.93
2018-04-16T14:43:49.162Z,7.10
2018-04-16T14:46:22.670Z,6.53
2018-04-16T14:48:56.168Z,6.90
2018-04-16T14:51:29.764Z,6.57
2018-04-16T14:54:03.566Z,7.90
2018-04-16T14:56:37.302Z,7.27
2018-04-16T14:59:11.618Z,6.57
2018-04-16T15:01:45.191Z,6.97
2018-04-16T15:04:18.805Z,6.77
2018-04-16T15:06:52.522Z,7.03
2018-04-16T15:09:26.045Z,6.07
2018-04-16T15:11:59.734Z,5.67
2018-04-16T15:14:33.422Z,6.40
2018-04-16T15:17:07.098Z,6.30
2018-04-16T15:19:40.769Z,6.63
2018-04-16T15:22:14.541Z,7.30
2018-04-16T15:24:48.282Z,8.03
2018-04-16T15:27:22.623Z,7.40
2018-04-16T15:29:56.570Z,6.77
2018-04-16T15:32:30.369Z,6.33
2018-04-16T15:35:03.981Z,7.30
2018-04-16T15:37:38.275Z,7.00
2018-04-16T15:40:12.014Z,6.90
2018-04-16T15:42:45.613Z,6.40
2018-04-16T15:45:19.219Z,5.60
2018-04-16T15:47:52.798Z,5.83
2018-04-16T15:50:27.443Z,5.17
2018-04-16T15:53:01.025Z,5.27
2018-04-16T15:55:34.619Z,5.20
2018-04-16T15:58:08.226Z,5.13
2018-04-16T16:00:41.748Z,4.40
2018-04-16T16:03:15.290Z,4.70
2018-04-16T16:05:48.911Z,4.80
2018-04-16T16:08:23.326Z,4.00
2018-04-16T16:10:56.866Z,4.50
2018-04-16T16:13:30.647Z,4.20
2018-04-16T16:16:04.163Z,4.20
2018-04-16T16:18:37.842Z,4.57
2018-04-16T16:21:12.176Z,4.47
2018-04-16T16:23:45.734Z,4.30
2018-04-16T16:26:20.179Z,4.47
2018-04-16T16:28:53.826Z,4.70
2018-04-16T16:31:27.388Z,4.27
2018-04-16T16:34:00.971Z,4.90
2018-04-16T16:36:34.690Z,4.47
2018-04-16T16:39:08.296Z,4.50
2018-04-16T16:41:41.891Z,5.03
2018-04-16T16:44:15.374Z,5.07
2018-04-16T16:46:49.103Z,4.70
2018-04-16T16:49:23.581Z,4.90
2018-04-16T16:51:57.169Z,4.73
2018-04-16T16:54:30.818Z,5.20
2018-04-16T16:57:04.406Z,5.17
2018-04-16T16:59:38.134Z,5.07
2018-04-16T17:02:11.736Z,5.43
2018-04-16T17:04:46.346Z,5.33
2018-04-16T17:07:20.667Z,5.33
2018-04-16T17:09:54.342Z,5.30
2018-04-16T17:12:28.037Z,5.70
2018-04-16T17:15:01.843Z,5.67
2018-04-16T17:17:35.486Z,5.60
2018-04-16T17:20:09.106Z,5.73
2018-04-16T17:22:42.782Z,5.13
2018-04-16T17:25:16.590Z,5.70
2018-04-16T17:27:50.102Z,5.60
2018-04-16T17:30:23.656Z,5.60
2018-04-16T17:32:57.220Z,6.37
2018-04-16T17:35:30.999Z,5.73
2018-04-16T17:38:05.304Z,5.90
2018-04-16T17:40:39.014Z,6.13
2018-04-16T17:43:12.597Z,6.40
2018-04-16T17:45:46.891Z,6.87
2018-04-16T17:48:20.692Z,6.47
2018-04-16T17:50:54.303Z,6.13
2018-04-16T17:53:28.048Z,7.27
2018-04-16T17:56:01.646Z,7.47
2018-04-16T17:58:35.243Z,7.50
2018-04-16T18:01:08.852Z,7.57
2018-04-16T18:03:42.472Z,8.27
2018-04-16T18:06:16.154Z,8.07
2018-04-16T18:08:49.730Z,7.90
2018-04-16T18:11:23.523Z,9.37
2018-04-16T18:13:57.097Z,8.70
2018-04-16T18:16:30.805Z,9.00
2018-04-16T18:19:04.462Z,8.93
2018-04-16T18:21:38.254Z,9.30
2018-04-16T18:24:12.074Z,8.57
2018-04-16T18:26:46.363Z,9.63
2018-04-16T18:29:20.502Z,9.47
2018-04-16T18:31:54.051Z,9.87
2018-04-16T18:34:27.586Z,9.70
2018-04-16T18:37:01.311Z,9.23
2018-04-16T18:39:34.990Z,9.13
2018-04-16T18:42:08.578Z,10.03
2018-04-16T18:44:42.311Z,9.53
2018-04-16T18:47:15.910Z,11.30
2018-04-16T18:49:50.223Z,10.57
2018-04-16T18:52:23.931Z,9.60
2018-04-16T18:54:57.754Z,8.93
2018-04-16T18:57:32.154Z,8.43
2018-04-16T19:00:05.957Z,8.67
2018-04-16T19:02:39.563Z,9.63
2018-04-16T19:05:13.875Z,9.93
2018-04-16T19:07:48.402Z,9.40
2018-04-16T19:10:22.214Z,9.33
2018-04-16T19:12:55.882Z,9.53
2018-04-16T19:15:29.454Z,8.70
2018-04-16T19:18:03.213Z,8.33
2018-04-16T19:20:42.479Z,8.47
2018-04-16T19:23:16.218Z,9.23
2018-04-16T19:25:49.850Z,8.57
2018-04-16T19:28:23.563Z,9.63
2018-04-16T19:30:57.296Z,8.23
2018-04-16T19:36:36.838Z,8.40
2018-04-16T19:39:10.530Z,7.10
2018-04-16T19:41:49.795Z,6.97
2018-04-16T19:44:23.362Z,6.60
2018-04-16T19:46:56.928Z,7.90
2018-04-16T19:49:36.299Z,8.50
2018-04-16T19:52:09.999Z,8.57
2018-04-16T19:54:43.774Z,9.03
2018-04-16T19:57:23.113Z,10.23
2018-04-16T19:59:56.743Z,11.60
2018-04-16T20:02:36.146Z,11.83
2018-04-16T20:05:09.714Z,12.70
2018-04-16T20:07:43.512Z,13.00
2018-04-16T20:10:17.305Z,13.50
2018-04-16T20:12:51.111Z,13.40
2018-04-16T20:15:25.515Z,14.43
2018-04-16T20:17:59.804Z,13.87
2018-04-16T20:20:33.530Z,14.77
2018-04-16T20:23:07.122Z,14.87
2018-04-16T20:25:41.643Z,13.83
2018-04-16T20:28:15.381Z,14.40
2018-04-16T20:30:48.966Z,14.83
2018-04-16T20:33:22.763Z,14.50
2018-04-16T20:35:56.575Z,14.47
2018-04-16T20:38:30.239Z,14.63
2018-04-16T20:41:03.867Z,15.90
2018-04-16T20:43:37.570Z,15.37
2018-04-16T20:46:11.175Z,14.73
2018-04-16T20:48:44.886Z,15.40
2018-04-16T20:51:18.577Z,14.77
2018-04-16T20:53:52.395Z,14.33
2018-04-16T20:56:26.207Z,14.67
2018-04-16T20:59:00.815Z,14.80
2018-04-16T21:01:34.438Z,13.70
2018-04-16T21:04:08.730Z,14.10
2018-04-16T21:06:43.155Z,14.47
2018-04-16T21:09:16.813Z,13.50
2018-04-16T21:11:50.351Z,14.03
2018-04-16T21:14:24.066Z,13.93
2018-04-16T21:16:57.771Z,13.97
2018-04-16T21:19:31.346Z,13.57
2018-04-16T21:22:05.137Z,13.27
2018-04-16T21:24:38.743Z,13.80
2018-04-16T21:27:12.479Z,14.27
2018-04-16T21:29:46.497Z,13.73
2018-04-16T21:32:20.295Z,14.03
2018-04-16T21:34:53.922Z,14.23
2018-04-16T21:37:27.498Z,14.87
2018-04-16T21:40:01.093Z,14.40
2018-04-16T21:42:35.110Z,14.33
2018-04-16T21:45:08.918Z,14.80
2018-04-16T21:47:42.722Z,14.43
2018-04-16T21:50:16.390Z,15.87
2018-04-16T21:52:50.129Z,15.17
2018-04-16T21:55:24.742Z,15.17
2018-04-16T21:57:59.054Z,16.77
2018-04-16T22:00:32.772Z,15.80
2018-04-16T22:03:06.410Z,15.47
2018-04-16T22:05:40.985Z,14.80
2018-04-16T22:08:14.798Z,14.40
2018-04-16T22:10:48.299Z,15.87
2018-04-16T22:13:21.990Z,19.05
2018-04-16T22:15:55.687Z,19.33
2018-04-16T22:18:29.243Z,17.33
2018-04-16T22:21:02.839Z,16.00
2018-04-16T22:23:38.046Z,15.73
2018-04-16T22:26:11.766Z,14.70
2018-04-16T22:28:45.552Z,15.70
2018-04-16T22:31:19.225Z,15.50
2018-04-16T22:33:52.742Z,15.57
2018-04-16T22:36:26.280Z,15.27
2018-04-16T22:39:00.262Z,16.10
2018-04-16T22:41:34.067Z,17.03
2018-04-16T22:44:07.875Z,14.67
2018-04-16T22:46:41.680Z,13.90
2018-04-16T22:49:15.414Z,14.43
2018-04-16T22:51:49.100Z,14.33
2018-04-16T22:54:22.694Z,14.03
2018-04-16T22:56:56.310Z,13.70
2018-04-16T22:59:30.917Z,14.17
2018-04-16T23:02:04.598Z,14.83
2018-04-16T23:04:38.290Z,13.73
2018-04-16T23:07:11.918Z,14.03
2018-04-16T23:09:45.722Z,14.47
2018-04-16T23:12:19.425Z,13.30
2018-04-16T23:14:53.008Z,13.93
2018-04-16T23:17:26.610Z,14.30
2018-04-16T23:20:00.191Z,13.90
2018-04-16T23:22:33.730Z,13.80
2018-04-16T23:25:07.335Z,13.63
2018-04-16T23:27:41.740Z,14.03
2018-04-16T23:30:15.552Z,13.43
2018-04-16T23:32:49.067Z,13.87
2018-04-16T23:35:22.959Z,13.60
2018-04-16T23:37:56.627Z,13.43
2018-04-16T23:40:30.574Z,11.87
2018-04-16T23:43:04.374Z,13.63
2018-04-16T23:45:38.389Z,13.13
2018-04-16T23:48:12.034Z,13.37
2018-04-16T23:50:45.794Z,12.47
2018-04-16T23:53:19.325Z,12.20
2018-04-16T23:55:53.679Z,12.23
2018-04-16T23:58:27.298Z,12.57
